SAS211 ENGM-ENCN
Flight info
| Callsign | SAS211 |
|---|---|
| Flight time | 0h 37m |
| Altitude | 28000 |
| Route | VIPPA DCT OSVAL |
| Aircraft | MD82/M-SDFGIRWY/S |
Departure
| Time | 2026-04-16 15:08 |
|---|---|
| Airport | Oslo-Gardermoen International Airport (ENGM) |
Arrival
| Time | 2026-04-16 15:46 |
|---|---|
| Airport | Kristiansand Airport (ENCN) |
| Time | Latitude | Longitude | Altitude | Speed | Heading |
|---|---|---|---|---|---|
| 2026-04-16 14:36 | 60.19557 | 11.09503 | 692 ft | 0 kts | 196° |
| 2026-04-16 14:58 | 60.19574 | 11.09512 | 685 ft | 4 kts | 196° |
| 2026-04-16 14:59 | 60.19599 | 11.09527 | 683 ft | 4 kts | 196° |
| 2026-04-16 14:59 | 60.19608 | 11.09533 | 685 ft | 0 kts | 196° |
| 2026-04-16 15:02 | 60.19602 | 11.09502 | 689 ft | 6 kts | 277° |
| 2026-04-16 15:02 | 60.19666 | 11.09376 | 685 ft | 17 kts | 314° |
| 2026-04-16 15:03 | 60.19715 | 11.09149 | 689 ft | 21 kts | 286° |
| 2026-04-16 15:03 | 60.19751 | 11.08903 | 686 ft | 20 kts | 285° |
| 2026-04-16 15:03 | 60.19784 | 11.08723 | 686 ft | 11 kts | 316° |
| 2026-04-16 15:03 | 60.19850 | 11.08672 | 687 ft | 10 kts | 313° |
| 2026-04-16 15:04 | 60.19896 | 11.08579 | 688 ft | 9 kts | 3° |
| 2026-04-16 15:04 | 60.19961 | 11.08606 | 687 ft | 10 kts | 14° |
| 2026-04-16 15:04 | 60.20030 | 11.08648 | 686 ft | 11 kts | 18° |
| 2026-04-16 15:04 | 60.20105 | 11.08693 | 689 ft | 12 kts | 16° |
| 2026-04-16 15:05 | 60.20187 | 11.08739 | 689 ft | 13 kts | 15° |
| 2026-04-16 15:05 | 60.20274 | 11.08789 | 692 ft | 13 kts | 16° |
| 2026-04-16 15:05 | 60.20370 | 11.08843 | 690 ft | 16 kts | 15° |
| 2026-04-16 15:05 | 60.20482 | 11.08907 | 688 ft | 18 kts | 17° |
| 2026-04-16 15:06 | 60.20575 | 11.08963 | 686 ft | 13 kts | 17° |
| 2026-04-16 15:06 | 60.20653 | 11.08957 | 684 ft | 11 kts | 317° |
| 2026-04-16 15:06 | 60.20681 | 11.08805 | 685 ft | 12 kts | 286° |
| 2026-04-16 15:06 | 60.20701 | 11.08656 | 685 ft | 5 kts | 255° |
| 2026-04-16 15:07 | 60.20680 | 11.08633 | 683 ft | 6 kts | 197° |
| 2026-04-16 15:07 | 60.20678 | 11.08632 | 685 ft | 0 kts | 195° |
| 2026-04-16 15:07 | 60.20650 | 11.08616 | 686 ft | 25 kts | 196° |
| 2026-04-16 15:08 | 60.20283 | 11.08402 | 687 ft | 86 kts | 196° |
| 2026-04-16 15:08 | 60.19518 | 11.07959 | 684 ft | 141 kts | 196° |
| 2026-04-16 15:08 | 60.18476 | 11.07355 | 1080 ft | 160 kts | 196° |
| 2026-04-16 15:08 | 60.17444 | 11.06660 | 2007 ft | 156 kts | 197° |
| 2026-04-16 15:09 | 60.16419 | 11.05737 | 2585 ft | 171 kts | 212° |
| 2026-04-16 15:09 | 60.15639 | 11.03893 | 3316 ft | 178 kts | 241° |
| 2026-04-16 15:09 | 60.15118 | 11.01540 | 3916 ft | 197 kts | 244° |
| 2026-04-16 15:09 | 60.14611 | 10.98940 | 4669 ft | 198 kts | 246° |
| 2026-04-16 15:10 | 60.14113 | 10.96238 | 5197 ft | 219 kts | 246° |
| 2026-04-16 15:10 | 60.13547 | 10.93225 | 5541 ft | 245 kts | 246° |
| 2026-04-16 15:10 | 60.12895 | 10.89884 | 6035 ft | 267 kts | 246° |
| 2026-04-16 15:10 | 60.12185 | 10.86411 | 6959 ft | 269 kts | 242° |
| 2026-04-16 15:11 | 60.11105 | 10.83468 | 7828 ft | 267 kts | 215° |
| 2026-04-16 15:11 | 60.09456 | 10.81894 | 8772 ft | 263 kts | 195° |
| 2026-04-16 15:11 | 60.07681 | 10.80854 | 9613 ft | 268 kts | 196° |
| 2026-04-16 15:11 | 60.05895 | 10.79691 | 10398 ft | 273 kts | 198° |
| 2026-04-16 15:12 | 60.04025 | 10.78380 | 10674 ft | 296 kts | 199° |
| 2026-04-16 15:12 | 60.02058 | 10.76712 | 10896 ft | 319 kts | 207° |
| 2026-04-16 15:12 | 60.00084 | 10.74400 | 11302 ft | 335 kts | 211° |
| 2026-04-16 15:12 | 59.98097 | 10.71906 | 12054 ft | 339 kts | 211° |
| 2026-04-16 15:13 | 59.96094 | 10.69402 | 12891 ft | 341 kts | 211° |
| 2026-04-16 15:13 | 59.94063 | 10.66906 | 13662 ft | 345 kts | 210° |
| 2026-04-16 15:13 | 59.91997 | 10.64417 | 14337 ft | 350 kts | 210° |
| 2026-04-16 15:13 | 59.89891 | 10.61933 | 14981 ft | 354 kts | 210° |
| 2026-04-16 15:14 | 59.87755 | 10.59454 | 15653 ft | 357 kts | 210° |
| 2026-04-16 15:14 | 59.85591 | 10.56967 | 16327 ft | 361 kts | 210° |
| 2026-04-16 15:14 | 59.83403 | 10.54465 | 16963 ft | 365 kts | 210° |
| 2026-04-16 15:14 | 59.81190 | 10.51943 | 17599 ft | 368 kts | 210° |
| 2026-04-16 15:15 | 59.78957 | 10.49401 | 18205 ft | 372 kts | 210° |
| 2026-04-16 15:15 | 59.76699 | 10.46829 | 18776 ft | 376 kts | 211° |
| 2026-04-16 15:15 | 59.74324 | 10.44117 | 19341 ft | 379 kts | 210° |
| 2026-04-16 15:16 | 59.72032 | 10.41497 | 19900 ft | 382 kts | 211° |
| 2026-04-16 15:16 | 59.69726 | 10.38860 | 20464 ft | 384 kts | 211° |
| 2026-04-16 15:16 | 59.67401 | 10.36210 | 20992 ft | 387 kts | 210° |
| 2026-04-16 15:16 | 59.65055 | 10.33554 | 21526 ft | 390 kts | 210° |
| 2026-04-16 15:17 | 59.62689 | 10.30896 | 22038 ft | 393 kts | 210° |
| 2026-04-16 15:17 | 59.60307 | 10.28222 | 22568 ft | 395 kts | 210° |
| 2026-04-16 15:17 | 59.57910 | 10.25529 | 23112 ft | 397 kts | 210° |
| 2026-04-16 15:17 | 59.55500 | 10.22818 | 23626 ft | 400 kts | 210° |
| 2026-04-16 15:18 | 59.53075 | 10.20086 | 24051 ft | 403 kts | 210° |
| 2026-04-16 15:18 | 59.50637 | 10.17337 | 24499 ft | 405 kts | 210° |
| 2026-04-16 15:18 | 59.48189 | 10.14579 | 24952 ft | 406 kts | 210° |
| 2026-04-16 15:18 | 59.45729 | 10.11815 | 25397 ft | 408 kts | 210° |
| 2026-04-16 15:19 | 59.43255 | 10.09042 | 25785 ft | 411 kts | 210° |
| 2026-04-16 15:19 | 59.40764 | 10.06252 | 26162 ft | 414 kts | 210° |
| 2026-04-16 15:19 | 59.38260 | 10.03453 | 26600 ft | 415 kts | 210° |
| 2026-04-16 15:19 | 59.35739 | 10.00639 | 27019 ft | 418 kts | 210° |
| 2026-04-16 15:20 | 59.33207 | 9.97816 | 27404 ft | 420 kts | 210° |
| 2026-04-16 15:20 | 59.30660 | 9.94982 | 27825 ft | 422 kts | 210° |
| 2026-04-16 15:20 | 59.28086 | 9.92144 | 28055 ft | 428 kts | 210° |
| 2026-04-16 15:21 | 59.22897 | 9.86451 | 28170 ft | 419 kts | 210° |
| 2026-04-16 15:21 | 59.17887 | 9.80947 | 28200 ft | 410 kts | 210° |
| 2026-04-16 15:22 | 59.12920 | 9.75487 | 28208 ft | 410 kts | 210° |
| 2026-04-16 15:22 | 59.07933 | 9.70012 | 28205 ft | 412 kts | 210° |
| 2026-04-16 15:23 | 59.02971 | 9.64590 | 28202 ft | 413 kts | 210° |
| 2026-04-16 15:23 | 59.00467 | 9.61861 | 28091 ft | 415 kts | 210° |
| 2026-04-16 15:23 | 58.97943 | 9.59112 | 27774 ft | 415 kts | 210° |
| 2026-04-16 15:23 | 58.95438 | 9.56391 | 27379 ft | 410 kts | 210° |
| 2026-04-16 15:24 | 58.92965 | 9.53721 | 26983 ft | 404 kts | 210° |
| 2026-04-16 15:24 | 58.90519 | 9.51100 | 26591 ft | 400 kts | 210° |
| 2026-04-16 15:24 | 58.88090 | 9.48501 | 26210 ft | 397 kts | 210° |
| 2026-04-16 15:24 | 58.85683 | 9.45921 | 25829 ft | 395 kts | 210° |
| 2026-04-16 15:25 | 58.83289 | 9.43352 | 25451 ft | 392 kts | 210° |
| 2026-04-16 15:25 | 58.80912 | 9.40799 | 25083 ft | 390 kts | 210° |
| 2026-04-16 15:25 | 58.78543 | 9.38256 | 24722 ft | 389 kts | 210° |
| 2026-04-16 15:25 | 58.76186 | 9.35727 | 24364 ft | 387 kts | 210° |
| 2026-04-16 15:26 | 58.73835 | 9.33208 | 23873 ft | 386 kts | 210° |
| 2026-04-16 15:26 | 58.71499 | 9.30710 | 23231 ft | 383 kts | 210° |
| 2026-04-16 15:26 | 58.69174 | 9.28229 | 22566 ft | 380 kts | 210° |
| 2026-04-16 15:26 | 58.66870 | 9.25773 | 21925 ft | 378 kts | 210° |
| 2026-04-16 15:27 | 58.64582 | 9.23338 | 21292 ft | 375 kts | 210° |
| 2026-04-16 15:27 | 58.62308 | 9.20921 | 20676 ft | 372 kts | 210° |
| 2026-04-16 15:27 | 58.60049 | 9.18524 | 20073 ft | 370 kts | 210° |
| 2026-04-16 15:27 | 58.57803 | 9.16140 | 19475 ft | 368 kts | 210° |
| 2026-04-16 15:28 | 58.55577 | 9.13749 | 18895 ft | 365 kts | 211° |
| 2026-04-16 15:28 | 58.54115 | 9.12173 | 18509 ft | 364 kts | 211° |
| 2026-04-16 15:28 | 58.51912 | 9.09805 | 17862 ft | 362 kts | 211° |
| 2026-04-16 15:28 | 58.49723 | 9.07464 | 17218 ft | 360 kts | 210° |
| 2026-04-16 15:29 | 58.47552 | 9.05123 | 16594 ft | 356 kts | 213° |
| 2026-04-16 15:29 | 58.45573 | 9.02336 | 15969 ft | 351 kts | 220° |
| 2026-04-16 15:29 | 58.43727 | 8.99333 | 15359 ft | 347 kts | 221° |
| 2026-04-16 15:29 | 58.41931 | 8.96302 | 14765 ft | 343 kts | 221° |
| 2026-04-16 15:30 | 58.40165 | 8.93292 | 14180 ft | 339 kts | 221° |
| 2026-04-16 15:30 | 58.38418 | 8.90306 | 13539 ft | 336 kts | 221° |
| 2026-04-16 15:30 | 58.36687 | 8.87363 | 12911 ft | 332 kts | 221° |
| 2026-04-16 15:30 | 58.34982 | 8.84486 | 12286 ft | 329 kts | 221° |
| 2026-04-16 15:31 | 58.33273 | 8.81623 | 11671 ft | 326 kts | 221° |
| 2026-04-16 15:31 | 58.31577 | 8.78800 | 11065 ft | 323 kts | 221° |
| 2026-04-16 15:31 | 58.29902 | 8.76023 | 10679 ft | 313 kts | 220° |
| 2026-04-16 15:31 | 58.28303 | 8.73378 | 10577 ft | 296 kts | 220° |
| 2026-04-16 15:32 | 58.26791 | 8.70881 | 10459 ft | 281 kts | 220° |
| 2026-04-16 15:32 | 58.25324 | 8.68462 | 10068 ft | 277 kts | 220° |
| 2026-04-16 15:32 | 58.23876 | 8.66075 | 9659 ft | 274 kts | 220° |
| 2026-04-16 15:32 | 58.22445 | 8.63716 | 9252 ft | 271 kts | 220° |
| 2026-04-16 15:33 | 58.21029 | 8.61389 | 8843 ft | 268 kts | 220° |
| 2026-04-16 15:33 | 58.19627 | 8.59083 | 8459 ft | 266 kts | 220° |
| 2026-04-16 15:33 | 58.18236 | 8.56798 | 8070 ft | 263 kts | 220° |
| 2026-04-16 15:33 | 58.16858 | 8.54533 | 7686 ft | 262 kts | 220° |
| 2026-04-16 15:34 | 58.15485 | 8.52281 | 7327 ft | 261 kts | 220° |
| 2026-04-16 15:34 | 58.14113 | 8.50048 | 6952 ft | 259 kts | 220° |
| 2026-04-16 15:34 | 58.12748 | 8.47838 | 6576 ft | 258 kts | 220° |
| 2026-04-16 15:34 | 58.11403 | 8.45660 | 6189 ft | 257 kts | 220° |
| 2026-04-16 15:35 | 58.10049 | 8.43463 | 5819 ft | 257 kts | 220° |
| 2026-04-16 15:35 | 58.08678 | 8.41231 | 5427 ft | 256 kts | 220° |
| 2026-04-16 15:35 | 58.07348 | 8.39065 | 5049 ft | 256 kts | 220° |
| 2026-04-16 15:35 | 58.06002 | 8.36872 | 4656 ft | 255 kts | 220° |
| 2026-04-16 15:36 | 58.04657 | 8.34685 | 4269 ft | 255 kts | 220° |
| 2026-04-16 15:36 | 58.03315 | 8.32502 | 3904 ft | 255 kts | 220° |
| 2026-04-16 15:36 | 58.01973 | 8.30316 | 3568 ft | 253 kts | 220° |
| 2026-04-16 15:36 | 58.00628 | 8.28232 | 3309 ft | 248 kts | 216° |
| 2026-04-16 15:37 | 57.99239 | 8.26352 | 3120 ft | 242 kts | 214° |
| 2026-04-16 15:37 | 57.97871 | 8.24580 | 3034 ft | 236 kts | 213° |
| 2026-04-16 15:37 | 57.96534 | 8.22861 | 3007 ft | 226 kts | 213° |
| 2026-04-16 15:37 | 57.95272 | 8.21232 | 2986 ft | 217 kts | 214° |
| 2026-04-16 15:38 | 57.94041 | 8.19644 | 2972 ft | 213 kts | 213° |
| 2026-04-16 15:38 | 57.92962 | 8.17772 | 2967 ft | 215 kts | 239° |
| 2026-04-16 15:38 | 57.92660 | 8.15042 | 2993 ft | 221 kts | 277° |
| 2026-04-16 15:38 | 57.93291 | 8.12360 | 3024 ft | 228 kts | 302° |
| 2026-04-16 15:39 | 57.94220 | 8.09927 | 3015 ft | 230 kts | 304° |
| 2026-04-16 15:39 | 57.95169 | 8.07501 | 2993 ft | 231 kts | 304° |
| 2026-04-16 15:39 | 57.96136 | 8.05088 | 2986 ft | 231 kts | 305° |
| 2026-04-16 15:39 | 57.97115 | 8.02689 | 2984 ft | 231 kts | 304° |
| 2026-04-16 15:40 | 57.98089 | 8.00262 | 2986 ft | 233 kts | 304° |
| 2026-04-16 15:40 | 57.99049 | 7.97800 | 2982 ft | 233 kts | 303° |
| 2026-04-16 15:40 | 57.99985 | 7.95346 | 2976 ft | 226 kts | 303° |
| 2026-04-16 15:40 | 58.00868 | 7.92993 | 2967 ft | 215 kts | 302° |
| 2026-04-16 15:41 | 58.01714 | 7.90700 | 2962 ft | 212 kts | 302° |
| 2026-04-16 15:41 | 58.02686 | 7.88627 | 2939 ft | 215 kts | 327° |
| 2026-04-16 15:41 | 58.04109 | 7.87954 | 2963 ft | 215 kts | 12° |
| 2026-04-16 15:41 | 58.05394 | 7.89121 | 3066 ft | 198 kts | 36° |
| 2026-04-16 15:42 | 58.06564 | 7.90472 | 3039 ft | 197 kts | 31° |
| 2026-04-16 15:42 | 58.07740 | 7.91756 | 3013 ft | 194 kts | 34° |
| 2026-04-16 15:42 | 58.08844 | 7.93191 | 3007 ft | 192 kts | 37° |
| 2026-04-16 15:42 | 58.09927 | 7.94630 | 2911 ft | 191 kts | 37° |
| 2026-04-16 15:43 | 58.11021 | 7.96076 | 2610 ft | 192 kts | 38° |
| 2026-04-16 15:43 | 58.12113 | 7.97515 | 2211 ft | 190 kts | 39° |
| 2026-04-16 15:43 | 58.13169 | 7.98932 | 1875 ft | 181 kts | 39° |
| 2026-04-16 15:43 | 58.14137 | 8.00205 | 1591 ft | 164 kts | 40° |
| 2026-04-16 15:44 | 58.15029 | 8.01390 | 1350 ft | 150 kts | 39° |
| 2026-04-16 15:44 | 58.15836 | 8.02451 | 1163 ft | 133 kts | 39° |
| 2026-04-16 15:44 | 58.16561 | 8.03422 | 969 ft | 127 kts | 39° |
| 2026-04-16 15:44 | 58.17278 | 8.04389 | 781 ft | 125 kts | 38° |
| 2026-04-16 15:45 | 58.17993 | 8.05320 | 575 ft | 127 kts | 35° |
| 2026-04-16 15:45 | 58.18709 | 8.06265 | 375 ft | 123 kts | 39° |
| 2026-04-16 15:45 | 58.19412 | 8.07203 | 167 ft | 125 kts | 36° |
| 2026-04-16 15:45 | 58.20099 | 8.08114 | 52 ft | 107 kts | 35° |
| 2026-04-16 15:46 | 58.20476 | 8.08605 | 54 ft | 35 kts | 35° |
| 2026-04-16 15:46 | 58.20605 | 8.08779 | 58 ft | 15 kts | 37° |
| 2026-04-16 15:46 | 58.20660 | 8.08877 | 56 ft | 5 kts | 14° |
| 2026-04-16 15:46 | 58.20668 | 8.08859 | 55 ft | 2 kts | 260° |
| 2026-04-16 15:47 | 58.20637 | 8.08815 | 55 ft | 9 kts | 213° |
| 2026-04-16 15:47 | 58.20570 | 8.08729 | 57 ft | 16 kts | 214° |
| 2026-04-16 15:47 | 58.20481 | 8.08612 | 53 ft | 15 kts | 215° |
| 2026-04-16 15:47 | 58.20418 | 8.08515 | 56 ft | 10 kts | 238° |
| 2026-04-16 15:48 | 58.20421 | 8.08403 | 51 ft | 10 kts | 297° |
| 2026-04-16 15:48 | 58.20458 | 8.08288 | 54 ft | 10 kts | 302° |
| 2026-04-16 15:48 | 58.20476 | 8.08177 | 56 ft | 8 kts | 257° |
| 2026-04-16 15:48 | 58.20434 | 8.08065 | 55 ft | 13 kts | 232° |
| 2026-04-16 15:49 | 58.20380 | 8.07929 | 55 ft | 13 kts | 232° |
| 2026-04-16 15:49 | 58.20326 | 8.07798 | 54 ft | 13 kts | 231° |
| 2026-04-16 15:49 | 58.20260 | 8.07684 | 54 ft | 12 kts | 213° |
| 2026-04-16 15:49 | 58.20229 | 8.07627 | 53 ft | 4 kts | 262° |
| 2026-04-16 15:50 | 58.20240 | 8.07577 | 52 ft | 4 kts | 299° |
| 2026-04-16 15:50 | 58.20243 | 8.07568 | 53 ft | 0 kts | 301° |